sensor_id;sensor_type;location;lat;lon;timestamp;temperature;humidity
16838;DHT22;19510;54.486;9.046;2022-09-13T04:40:34;16.60;99.90
16838;DHT22;19510;54.486;9.046;2022-09-13T04:43:00;16.50;99.90
16838;DHT22;19510;54.486;9.046;2022-09-13T04:45:27;16.50;99.90
16838;DHT22;19510;54.486;9.046;2022-09-13T04:47:54;16.50;99.90
16838;DHT22;19510;54.486;9.046;2022-09-13T04:50:21;16.40;99.90
16838;DHT22;19510;54.486;9.046;2022-09-13T04:52:47;16.40;99.90
16838;DHT22;19510;54.486;9.046;2022-09-13T04:55:13;16.30;99.90
16838;DHT22;19510;54.486;9.046;2022-09-13T04:57:42;16.30;99.90
16838;DHT22;19510;54.486;9.046;2022-09-13T05:00:08;16.30;99.90
16838;DHT22;19510;54.486;9.046;2022-09-13T05:02:42;16.30;99.90
16838;DHT22;19510;54.486;9.046;2022-09-13T05:05:08;16.20;99.90
16838;DHT22;19510;54.486;9.046;2022-09-13T05:07:34;16.20;99.90
16838;DHT22;19510;54.486;9.046;2022-09-13T05:10:00;16.20;99.90
16838;DHT22;19510;54.486;9.046;2022-09-13T05:12:28;16.10;99.90
16838;DHT22;19510;54.486;9.046;2022-09-13T05:14:54;16.20;99.90
16838;DHT22;19510;54.486;9.046;2022-09-13T05:17:23;16.20;99.90
16838;DHT22;19510;54.486;9.046;2022-09-13T05:20:12;16.10;99.90
16838;DHT22;19510;54.486;9.046;2022-09-13T05:26:39;16.10;99.90
16838;DHT22;19510;54.486;9.046;2022-09-13T05:29:06;16.10;99.90
16838;DHT22;19510;54.486;9.046;2022-09-13T05:31:37;16.10;99.90
16838;DHT22;19510;54.486;9.046;2022-09-13T05:34:14;16.10;99.90
16838;DHT22;19510;54.486;9.046;2022-09-13T05:36:41;16.10;99.90
16838;DHT22;19510;54.486;9.046;2022-09-13T05:45:57;16.00;99.90
16838;DHT22;19510;54.486;9.046;2022-09-13T05:51:48;16.00;99.90
16838;DHT22;19510;54.486;9.046;2022-09-13T05:54:14;15.90;99.90
16838;DHT22;19510;54.486;9.046;2022-09-13T05:56:40;16.00;99.90
16838;DHT22;19510;54.486;9.046;2022-09-13T05:59:06;16.00;99.90
16838;DHT22;19510;54.486;9.046;2022-09-13T06:01:35;15.90;99.90
16838;DHT22;19510;54.486;9.046;2022-09-13T06:04:01;16.00;99.90
16838;DHT22;19510;54.486;9.046;2022-09-13T06:06:27;16.00;99.90
16838;DHT22;19510;54.486;9.046;2022-09-13T06:08:54;16.00;99.90
16838;DHT22;19510;54.486;9.046;2022-09-13T06:11:23;16.00;99.90
16838;DHT22;19510;54.486;9.046;2022-09-13T06:13:51;16.10;99.90
16838;DHT22;19510;54.486;9.046;2022-09-13T06:16:18;16.10;99.90
16838;DHT22;19510;54.486;9.046;2022-09-13T06:18:44;16.20;99.90
16838;DHT22;19510;54.486;9.046;2022-09-13T06:21:12;16.20;99.90
16838;DHT22;19510;54.486;9.046;2022-09-13T06:23:48;16.30;99.90
16838;DHT22;19510;54.486;9.046;2022-09-13T06:26:17;16.30;99.90
16838;DHT22;19510;54.486;9.046;2022-09-13T06:28:47;16.30;99.90
16838;DHT22;19510;54.486;9.046;2022-09-13T06:31:14;16.40;99.90
16838;DHT22;19510;54.486;9.046;2022-09-13T06:33:41;16.40;99.90
16838;DHT22;19510;54.486;9.046;2022-09-13T06:36:10;16.50;99.90
16838;DHT22;19510;54.486;9.046;2022-09-13T06:38:37;16.50;99.90
16838;DHT22;19510;54.486;9.046;2022-09-13T06:41:10;16.50;99.90
16838;DHT22;19510;54.486;9.046;2022-09-13T15:24:35;18.70;99.90
16838;DHT22;19510;54.486;9.046;2022-09-13T15:36:45;19.10;99.90
16838;DHT22;19510;54.486;9.046;2022-09-13T15:39:17;19.00;99.90
16838;DHT22;19510;54.486;9.046;2022-09-13T15:42:04;18.90;99.90
16838;DHT22;19510;54.486;9.046;2022-09-13T15:44:32;18.80;99.90
16838;DHT22;19510;54.486;9.046;2022-09-13T15:47:00;18.80;99.90
16838;DHT22;19510;54.486;9.046;2022-09-13T15:49:31;18.70;99.90
16838;DHT22;19510;54.486;9.046;2022-09-13T15:51:59;18.60;99.90
16838;DHT22;19510;54.486;9.046;2022-09-13T15:54:39;18.50;99.90
16838;DHT22;19510;54.486;9.046;2022-09-13T15:57:12;18.20;99.90
16838;DHT22;19510;54.486;9.046;2022-09-13T15:59:41;17.90;99.90
16838;DHT22;19510;54.486;9.046;2022-09-13T16:02:27;17.80;99.90
16838;DHT22;19510;54.486;9.046;2022-09-13T16:04:55;17.70;99.90
16838;DHT22;19510;54.486;9.046;2022-09-13T16:07:24;17.60;99.90
16838;DHT22;19510;54.486;9.046;2022-09-13T16:09:52;17.50;99.90
16838;DHT22;19510;54.486;9.046;2022-09-13T16:12:18;17.50;99.90
16838;DHT22;19510;54.486;9.046;2022-09-13T16:14:46;17.40;99.90
16838;DHT22;19510;54.486;9.046;2022-09-13T16:20:36;17.40;99.90
16838;DHT22;19510;54.486;9.046;2022-09-13T16:23:02;17.50;99.90
16838;DHT22;19510;54.486;9.046;2022-09-13T16:25:30;17.50;99.90
16838;DHT22;19510;54.486;9.046;2022-09-13T16:27:56;17.50;99.90
16838;DHT22;19510;54.486;9.046;2022-09-13T16:30:22;17.50;99.90
16838;DHT22;19510;54.486;9.046;2022-09-13T16:32:48;17.50;99.90
16838;DHT22;19510;54.486;9.046;2022-09-13T16:35:18;17.50;99.90
16838;DHT22;19510;54.486;9.046;2022-09-13T16:37:44;17.60;99.90
16838;DHT22;19510;54.486;9.046;2022-09-13T16:40:10;17.50;99.90
16838;DHT22;19510;54.486;9.046;2022-09-13T16:42:39;17.60;99.90
16838;DHT22;19510;54.486;9.046;2022-09-13T16:45:08;17.60;99.90
16838;DHT22;19510;54.486;9.046;2022-09-13T16:47:35;17.60;99.90
16838;DHT22;19510;54.486;9.046;2022-09-13T16:50:04;17.60;99.90
16838;DHT22;19510;54.486;9.046;2022-09-13T16:52:36;17.60;99.90
16838;DHT22;19510;54.486;9.046;2022-09-13T16:55:04;17.60;99.90
16838;DHT22;19510;54.486;9.046;2022-09-13T16:57:30;17.60;99.90
16838;DHT22;19510;54.486;9.046;2022-09-13T16:59:59;17.60;99.90
16838;DHT22;19510;54.486;9.046;2022-09-13T17:02:25;17.60;99.90
16838;DHT22;19510;54.486;9.046;2022-09-13T17:04:52;17.60;99.90
16838;DHT22;19510;54.486;9.046;2022-09-13T17:07:20;17.50;99.90
16838;DHT22;19510;54.486;9.046;2022-09-13T17:09:48;17.50;99.90
16838;DHT22;19510;54.486;9.046;2022-09-13T17:12:14;17.50;99.90
16838;DHT22;19510;54.486;9.046;2022-09-13T17:14:41;17.60;99.90
16838;DHT22;19510;54.486;9.046;2022-09-13T17:17:07;17.50;99.90
16838;DHT22;19510;54.486;9.046;2022-09-13T17:19:34;17.50;99.90
16838;DHT22;19510;54.486;9.046;2022-09-13T17:22:01;17.50;99.90
16838;DHT22;19510;54.486;9.046;2022-09-13T17:24:28;17.40;99.90
16838;DHT22;19510;54.486;9.046;2022-09-13T17:26:57;17.40;99.90
16838;DHT22;19510;54.486;9.046;2022-09-13T17:29:24;17.30;99.90
16838;DHT22;19510;54.486;9.046;2022-09-13T17:31:52;17.30;99.90
16838;DHT22;19510;54.486;9.046;2022-09-13T17:34:18;17.10;99.90
16838;DHT22;19510;54.486;9.046;2022-09-13T17:36:44;17.10;99.90
16838;DHT22;19510;54.486;9.046;2022-09-13T17:39:10;17.00;99.90
16838;DHT22;19510;54.486;9.046;2022-09-13T17:41:36;16.90;99.90
16838;DHT22;19510;54.486;9.046;2022-09-13T17:44:02;16.80;99.90
16838;DHT22;19510;54.486;9.046;2022-09-13T17:46:30;16.80;99.90
16838;DHT22;19510;54.486;9.046;2022-09-13T17:48:57;16.90;99.90
16838;DHT22;19510;54.486;9.046;2022-09-13T17:51:29;16.90;99.90
16838;DHT22;19510;54.486;9.046;2022-09-13T17:53:57;16.90;99.90
16838;DHT22;19510;54.486;9.046;2022-09-13T17:56:44;17.00;99.90
16838;DHT22;19510;54.486;9.046;2022-09-13T17:59:13;16.90;99.90
16838;DHT22;19510;54.486;9.046;2022-09-13T18:01:41;17.00;99.90
16838;DHT22;19510;54.486;9.046;2022-09-13T18:04:07;17.00;99.90
16838;DHT22;19510;54.486;9.046;2022-09-13T18:06:34;17.00;99.90
16838;DHT22;19510;54.486;9.046;2022-09-13T18:09:00;17.00;99.90
16838;DHT22;19510;54.486;9.046;2022-09-13T18:11:26;17.00;99.90
16838;DHT22;19510;54.486;9.046;2022-09-13T18:13:51;17.00;99.90
16838;DHT22;19510;54.486;9.046;2022-09-13T18:16:20;17.00;99.90
16838;DHT22;19510;54.486;9.046;2022-09-13T18:18:49;17.00;99.90
16838;DHT22;19510;54.486;9.046;2022-09-13T18:21:18;17.00;99.90
16838;DHT22;19510;54.486;9.046;2022-09-13T18:23:50;17.00;99.90
16838;DHT22;19510;54.486;9.046;2022-09-13T18:26:20;17.00;99.90
16838;DHT22;19510;54.486;9.046;2022-09-13T18:28:57;17.00;99.90
16838;DHT22;19510;54.486;9.046;2022-09-13T18:31:26;17.10;99.90
16838;DHT22;19510;54.486;9.046;2022-09-13T18:37:14;17.00;99.90
16838;DHT22;19510;54.486;9.046;2022-09-13T18:39:39;17.10;99.90
16838;DHT22;19510;54.486;9.046;2022-09-13T18:42:07;17.10;99.90
16838;DHT22;19510;54.486;9.046;2022-09-13T18:44:33;17.00;99.90
16838;DHT22;19510;54.486;9.046;2022-09-13T18:46:58;17.00;99.90
16838;DHT22;19510;54.486;9.046;2022-09-13T18:49:29;17.00;99.90
16838;DHT22;19510;54.486;9.046;2022-09-13T18:51:55;17.00;99.90
16838;DHT22;19510;54.486;9.046;2022-09-13T18:54:20;17.00;99.90
16838;DHT22;19510;54.486;9.046;2022-09-13T18:56:46;17.10;99.90
16838;DHT22;19510;54.486;9.046;2022-09-13T18:59:12;17.10;99.90
16838;DHT22;19510;54.486;9.046;2022-09-13T19:01:40;17.10;99.90
16838;DHT22;19510;54.486;9.046;2022-09-13T19:04:12;17.10;99.90
16838;DHT22;19510;54.486;9.046;2022-09-13T19:06:46;17.20;99.90
16838;DHT22;19510;54.486;9.046;2022-09-13T19:09:12;17.10;99.90
16838;DHT22;19510;54.486;9.046;2022-09-13T19:11:43;17.20;99.90
16838;DHT22;19510;54.486;9.046;2022-09-13T19:14:16;17.10;99.90
16838;DHT22;19510;54.486;9.046;2022-09-13T19:16:46;17.10;99.90
16838;DHT22;19510;54.486;9.046;2022-09-13T19:19:14;17.10;99.90
16838;DHT22;19510;54.486;9.046;2022-09-13T19:21:40;17.10;99.90
16838;DHT22;19510;54.486;9.046;2022-09-13T19:24:10;17.10;99.90
16838;DHT22;19510;54.486;9.046;2022-09-13T19:26:40;17.00;99.90
16838;DHT22;19510;54.486;9.046;2022-09-13T19:29:12;17.00;99.90
16838;DHT22;19510;54.486;9.046;2022-09-13T19:31:40;17.00;99.90
16838;DHT22;19510;54.486;9.046;2022-09-13T19:34:11;16.90;99.90
16838;DHT22;19510;54.486;9.046;2022-09-13T19:36:41;16.90;99.90
16838;DHT22;19510;54.486;9.046;2022-09-13T19:39:09;16.90;99.90
16838;DHT22;19510;54.486;9.046;2022-09-13T19:41:36;16.90;99.90
16838;DHT22;19510;54.486;9.046;2022-09-13T19:44:03;16.90;99.90
16838;DHT22;19510;54.486;9.046;2022-09-13T19:46:31;16.90;99.90
16838;DHT22;19510;54.486;9.046;2022-09-13T19:48:58;16.90;99.90
16838;DHT22;19510;54.486;9.046;2022-09-13T19:51:36;16.80;99.90
16838;DHT22;19510;54.486;9.046;2022-09-13T19:54:04;16.90;99.90
16838;DHT22;19510;54.486;9.046;2022-09-13T19:56:32;16.80;99.90
16838;DHT22;19510;54.486;9.046;2022-09-13T19:58:59;16.90;99.90
16838;DHT22;19510;54.486;9.046;2022-09-13T20:01:28;16.90;99.90
16838;DHT22;19510;54.486;9.046;2022-09-13T20:03:59;16.80;99.90
16838;DHT22;19510;54.486;9.046;2022-09-13T20:06:26;16.90;99.90
16838;DHT22;19510;54.486;9.046;2022-09-13T20:08:57;16.90;99.90
16838;DHT22;19510;54.486;9.046;2022-09-13T20:11:23;16.80;99.90
16838;DHT22;19510;54.486;9.046;2022-09-13T20:13:50;16.80;99.90
16838;DHT22;19510;54.486;9.046;2022-09-13T20:16:22;16.90;99.90
16838;DHT22;19510;54.486;9.046;2022-09-13T20:18:49;16.90;99.90
16838;DHT22;19510;54.486;9.046;2022-09-13T20:21:15;16.80;99.90
16838;DHT22;19510;54.486;9.046;2022-09-13T20:23:43;16.90;99.90
16838;DHT22;19510;54.486;9.046;2022-09-13T20:26:18;16.90;99.90
16838;DHT22;19510;54.486;9.046;2022-09-13T20:28:45;16.90;99.90
16838;DHT22;19510;54.486;9.046;2022-09-13T20:31:13;16.90;99.90
16838;DHT22;19510;54.486;9.046;2022-09-13T20:33:42;16.90;99.90
16838;DHT22;19510;54.486;9.046;2022-09-13T20:36:20;16.90;99.90
16838;DHT22;19510;54.486;9.046;2022-09-13T20:38:49;16.80;99.90
16838;DHT22;19510;54.486;9.046;2022-09-13T20:41:18;16.80;99.90
16838;DHT22;19510;54.486;9.046;2022-09-13T20:43:47;16.70;99.90
16838;DHT22;19510;54.486;9.046;2022-09-13T20:46:19;16.70;99.90
16838;DHT22;19510;54.486;9.046;2022-09-13T20:48:50;16.60;99.90
